PWSweather.com
Personal Weather Stations
Station Observations
KCTHAMDEN
Dunbar Hill, Hamden, CT 06514

Dunbar HillHamden, CT 06514

Lat: 41.365437, Lon: -72.956532

Elevation: 200

Station Type: Davis Vantage Pro2+

Latest ConditionsUpdated 1:30:02 PM EST Sunday, Jan 26, 2020
Currently Today's Max Today's Min Today's Average
Temperature 46.8°F8.2°C 47.9°F8.8°C 33.5°F0.8°C 41.1°F5.1°C
Dew Point 34.5°F1.4°C 42.3°F5.7°C 32.0°F0.0°C 37.4°F3.0°C
Winds 2.0 mph SE3.2 kmh SE 8.1 mph -13.0 kmh - - 1.3 mph 2.1 kmh
Wind Gusts 7.0 mph11.3 kmh 14.0 mph22.5 kmh - -
Humidity 62% 97% 58% 88%
Pressure 29.72 in1006.4 mb 29.80 in1009.1 mb 29.72 in1006.4 mb -
Hour Temp Dew Point Humidity Winds Wind Gusts Pressure Precip Precip Rate Daily Precip Total
01:30 PM 46.8°F8.2°C 34.5°F1.4°C 62% 2.0 mph SE3.2 kmh SE 7.0 mph11.3 kmh 29.72 in1006.4 mb - 0.00 in0.0 mm 0.00 in0.0 mm
01:15 PM 46.9°F8.3°C 32.9°F0.5°C 58% 8.1 mph SW13.0 kmh SW 14.0 mph22.5 kmh 29.73 in1006.8 mb - 0.00 in0.0 mm 0.00 in0.0 mm
01:00 PM 46.8°F8.2°C 33.2°F0.7°C 59% 3.4 mph E5.5 kmh E 9.0 mph14.5 kmh 29.73 in1006.8 mb - 0.00 in0.0 mm 0.00 in0.0 mm
12:45 PM 47.6°F8.7°C 33.9°F1.1°C 59% 5.9 mph E9.5 kmh E 8.0 mph12.9 kmh 29.73 in1006.8 mb - 0.00 in0.0 mm 0.00 in0.0 mm
12:30 PM 47.9°F8.8°C 35.1°F1.7°C 61% 4.7 mph SW7.6 kmh SW 7.0 mph11.3 kmh 29.74 in1007.1 mb - 0.00 in0.0 mm 0.00 in0.0 mm
12:15 PM 47.1°F8.4°C 35.9°F2.2°C 65% 3.5 mph SSW5.6 kmh SSW 7.0 mph11.3 kmh 29.74 in1007.1 mb - 0.00 in0.0 mm 0.00 in0.0 mm
12:00 PM 46.8°F8.2°C 36.0°F2.2°C 66% 1.4 mph S2.3 kmh S 7.0 mph11.3 kmh 29.75 in1007.5 mb - 0.00 in0.0 mm 0.00 in0.0 mm
11:45 AM 46.7°F8.2°C 37.1°F2.8°C 69% 2.5 mph SW4.0 kmh SW 6.0 mph9.7 kmh 29.75 in1007.5 mb - 0.00 in0.0 mm 0.00 in0.0 mm
11:30 AM 45.2°F7.3°C 36.4°F2.4°C 71% 4.4 mph SW7.1 kmh SW 9.0 mph14.5 kmh 29.76 in1007.8 mb - 0.00 in0.0 mm 0.00 in0.0 mm
11:15 AM 45.8°F7.7°C 35.8°F2.1°C 68% 3.5 mph E5.6 kmh E 8.0 mph12.9 kmh 29.77 in1008.1 mb - 0.00 in0.0 mm 0.00 in0.0 mm
11:00 AM 45.9°F7.7°C 37.0°F2.8°C 71% 3.3 mph S5.3 kmh S 7.0 mph11.3 kmh 29.77 in1008.1 mb - 0.00 in0.0 mm 0.00 in0.0 mm
10:45 AM 45.9°F7.7°C 37.7°F3.2°C 73% 2.8 mph SE4.5 kmh SE 4.0 mph6.4 kmh 29.77 in1008.1 mb - 0.00 in0.0 mm 0.00 in0.0 mm
10:30 AM 45.4°F7.4°C 37.9°F3.3°C 75% 2.1 mph S3.4 kmh S 3.0 mph4.8 kmh 29.78 in1008.5 mb - 0.00 in0.0 mm 0.00 in0.0 mm
10:15 AM 44.7°F7.1°C 38.9°F3.8°C 80% 1.4 mph SW2.3 kmh SW 3.0 mph4.8 kmh 29.78 in1008.5 mb - 0.00 in0.0 mm 0.00 in0.0 mm
10:00 AM 43.7°F6.5°C 39.2°F4.0°C 84% 1.5 mph SW2.4 kmh SW 4.0 mph6.4 kmh 29.79 in1008.8 mb - 0.00 in0.0 mm 0.00 in0.0 mm
09:45 AM 42.7°F5.9°C 40.3°F4.6°C 91% 3.7 mph SW6.0 kmh SW 6.0 mph9.7 kmh 29.78 in1008.5 mb - 0.00 in0.0 mm 0.00 in0.0 mm
09:30 AM 41.2°F5.1°C 39.8°F4.3°C 95% 0.6 mph SW1.0 kmh SW 1.0 mph1.6 kmh 29.78 in1008.5 mb - 0.00 in0.0 mm 0.00 in0.0 mm
09:15 AM 39.9°F4.4°C 38.8°F3.8°C 96% 1.1 mph SW1.8 kmh SW 2.0 mph3.2 kmh 29.79 in1008.8 mb - 0.00 in0.0 mm 0.00 in0.0 mm
09:00 AM 38.3°F3.5°C 37.5°F3.1°C 97% 0.4 mph SW0.6 kmh SW 1.0 mph1.6 kmh 29.79 in1008.8 mb - 0.00 in0.0 mm 0.00 in0.0 mm
08:45 AM 35.9°F2.2°C 34.9°F1.6°C 96% 2.0 mph SSW3.2 kmh SSW 3.0 mph4.8 kmh 29.80 in1009.1 mb - 0.00 in0.0 mm 0.00 in0.0 mm
08:30 AM 34.1°F1.2°C 32.8°F0.4°C 95% Calm Calm 1.0 mph1.6 kmh 29.80 in1009.1 mb - 0.00 in0.0 mm 0.00 in0.0 mm
08:15 AM 33.5°F0.8°C 32.2°F0.1°C 95% Calm Calm -- 29.80 in1009.1 mb - 0.00 in0.0 mm 0.00 in0.0 mm
08:00 AM 33.5°F0.8°C 32.0°F0.0°C 94% Calm Calm -- 29.80 in1009.1 mb - 0.00 in0.0 mm 0.00 in0.0 mm
07:45 AM 33.8°F1.0°C 32.2°F0.1°C 94% Calm Calm -- 29.80 in1009.1 mb - 0.00 in0.0 mm 0.00 in0.0 mm
07:30 AM 34.3°F1.3°C 32.8°F0.4°C 94% Calm Calm -- 29.80 in1009.1 mb - 0.00 in0.0 mm 0.00 in0.0 mm
07:15 AM 34.8°F1.6°C 33.3°F0.7°C 94% Calm Calm -- 29.79 in1008.8 mb - 0.00 in0.0 mm 0.00 in0.0 mm
07:00 AM 35.4°F1.9°C 33.9°F1.1°C 94% Calm Calm -- 29.79 in1008.8 mb - 0.00 in0.0 mm 0.00 in0.0 mm
06:45 AM 36.2°F2.3°C 34.6°F1.4°C 94% Calm Calm -- 29.79 in1008.8 mb - 0.00 in0.0 mm 0.00 in0.0 mm
06:30 AM 37.0°F2.8°C 35.4°F1.9°C 94% 0.3 mph E0.5 kmh E 1.0 mph1.6 kmh 29.78 in1008.5 mb - 0.00 in0.0 mm 0.00 in0.0 mm
06:15 AM 37.7°F3.2°C 36.1°F2.3°C 94% Calm Calm -- 29.78 in1008.5 mb - 0.00 in0.0 mm 0.00 in0.0 mm
06:00 AM 38.2°F3.4°C 36.6°F2.6°C 94% Calm Calm -- 29.78 in1008.5 mb - 0.00 in0.0 mm 0.00 in0.0 mm
05:45 AM 38.7°F3.7°C 37.1°F2.8°C 94% Calm Calm -- 29.77 in1008.1 mb - 0.00 in0.0 mm 0.00 in0.0 mm
05:30 AM 39.1°F3.9°C 37.5°F3.1°C 94% 0.5 mph E0.8 kmh E 1.0 mph1.6 kmh 29.77 in1008.1 mb - 0.00 in0.0 mm 0.00 in0.0 mm
05:15 AM 39.8°F4.3°C 38.2°F3.4°C 94% Calm Calm -- 29.77 in1008.1 mb - 0.00 in0.0 mm 0.00 in0.0 mm
05:00 AM 40.2°F4.6°C 38.9°F3.8°C 95% 1.2 mph SE1.9 kmh SE 3.0 mph4.8 kmh 29.76 in1007.8 mb - 0.00 in0.0 mm 0.00 in0.0 mm
04:45 AM 40.3°F4.6°C 39.0°F3.9°C 95% Calm Calm -- 29.77 in1008.1 mb - 0.00 in0.0 mm 0.00 in0.0 mm
04:30 AM 40.3°F4.6°C 39.0°F3.9°C 95% 0.7 mph SW1.1 kmh SW 3.0 mph4.8 kmh 29.76 in1007.8 mb - 0.00 in0.0 mm 0.00 in0.0 mm
04:15 AM 40.3°F4.6°C 39.0°F3.9°C 95% 0.1 mph E0.2 kmh E 1.0 mph1.6 kmh 29.76 in1007.8 mb - 0.00 in0.0 mm 0.00 in0.0 mm
04:00 AM 40.4°F4.7°C 39.1°F3.9°C 95% 0.2 mph SSW0.3 kmh SSW -- 29.75 in1007.5 mb - 0.00 in0.0 mm 0.00 in0.0 mm
03:45 AM 40.6°F4.8°C 39.3°F4.1°C 95% Calm Calm -- 29.75 in1007.5 mb - 0.00 in0.0 mm 0.00 in0.0 mm
03:30 AM 40.7°F4.8°C 39.4°F4.1°C 95% Calm Calm -- 29.75 in1007.5 mb - 0.00 in0.0 mm 0.00 in0.0 mm
03:15 AM 40.7°F4.8°C 39.6°F4.2°C 96% 0.6 mph SW1.0 kmh SW 3.0 mph4.8 kmh 29.75 in1007.5 mb - 0.00 in0.0 mm 0.00 in0.0 mm
03:00 AM 40.8°F4.9°C 39.8°F4.3°C 96% 1.4 mph SSW2.3 kmh SSW 3.0 mph4.8 kmh 29.75 in1007.5 mb - 0.00 in0.0 mm 0.00 in0.0 mm
02:45 AM 41.0°F5.0°C 40.0°F4.4°C 96% Calm Calm -- 29.75 in1007.5 mb - 0.00 in0.0 mm 0.00 in0.0 mm
02:30 AM 41.1°F5.1°C 40.0°F4.4°C 96% 0.7 mph E1.1 kmh E 1.0 mph1.6 kmh 29.75 in1007.5 mb - 0.00 in0.0 mm 0.00 in0.0 mm
02:15 AM 41.1°F5.1°C 40.0°F4.4°C 96% 0.4 mph SW0.6 kmh SW 2.0 mph3.2 kmh 29.75 in1007.5 mb - 0.00 in0.0 mm 0.00 in0.0 mm
02:00 AM 41.1°F5.1°C 40.0°F4.4°C 96% 1.4 mph WSW2.3 kmh WSW 2.0 mph3.2 kmh 29.75 in1007.5 mb - 0.00 in0.0 mm 0.00 in0.0 mm
01:45 AM 41.1°F5.1°C 40.0°F4.4°C 96% Calm Calm 1.0 mph1.6 kmh 29.75 in1007.5 mb - 0.00 in0.0 mm 0.00 in0.0 mm
01:30 AM 41.3°F5.2°C 40.2°F4.6°C 96% 0.1 mph SW0.2 kmh SW 1.0 mph1.6 kmh 29.74 in1007.1 mb - 0.00 in0.0 mm 0.00 in0.0 mm
01:15 AM 41.5°F5.3°C 40.4°F4.7°C 96% 0.5 mph SW0.8 kmh SW 1.0 mph1.6 kmh 29.74 in1007.1 mb - 0.00 in0.0 mm 0.00 in0.0 mm
01:00 AM 41.8°F5.4°C 40.7°F4.8°C 96% 1.0 mph WSW1.6 kmh WSW 4.0 mph6.4 kmh 29.73 in1006.8 mb - 0.00 in0.0 mm 0.00 in0.0 mm
12:45 AM 42.0°F5.6°C 40.9°F4.9°C 96% 1.3 mph SW2.1 kmh SW 3.0 mph4.8 kmh 29.74 in1007.1 mb - 0.00 in0.0 mm 0.00 in0.0 mm
12:30 AM 42.3°F5.7°C 41.3°F5.2°C 96% 0.8 mph E1.3 kmh E 3.0 mph4.8 kmh 29.75 in1007.5 mb - 0.00 in0.0 mm 0.00 in0.0 mm
12:15 AM 42.8°F6.0°C 42.0°F5.6°C 97% 0.3 mph S0.5 kmh S 2.0 mph3.2 kmh 29.75 in1007.5 mb - 0.00 in0.0 mm 0.00 in0.0 mm
12:00 AM 43.3°F6.3°C 42.3°F5.7°C 96% 0.5 mph E0.8 kmh E 2.0 mph3.2 kmh 29.75 in1007.5 mb - 0.00 in0.0 mm 0.00 in0.0 mm